createdAt,value
2019-05-25T00:00:14.685Z,0.00
2019-05-25T00:01:14.706Z,0.00
2019-05-25T00:02:14.625Z,0.00
2019-05-25T00:03:14.559Z,0.00
2019-05-25T00:04:14.542Z,0.00
2019-05-25T00:05:14.535Z,0.00
2019-05-25T00:06:14.582Z,0.00
2019-05-25T00:07:14.546Z,0.00
2019-05-25T00:08:14.492Z,0.00
2019-05-25T00:09:14.485Z,0.00
2019-05-25T00:10:14.472Z,0.00
2019-05-25T00:11:14.464Z,0.00
2019-05-25T00:12:14.488Z,0.00
2019-05-25T00:13:14.805Z,0.00
2019-05-25T00:14:14.434Z,0.00
2019-05-25T00:15:14.421Z,0.00
2019-05-25T00:16:14.406Z,0.00
2019-05-25T00:17:14.427Z,0.00
2019-05-25T00:18:14.401Z,0.00
2019-05-25T00:19:14.415Z,0.00
2019-05-25T00:20:14.363Z,0.00
2019-05-25T00:21:14.408Z,0.00
2019-05-25T00:22:14.438Z,0.00
2019-05-25T00:23:14.372Z,0.00
2019-05-25T00:24:14.338Z,0.00
2019-05-25T00:25:14.316Z,0.00
2019-05-25T00:26:14.353Z,0.00
2019-05-25T00:27:14.399Z,0.00
2019-05-25T00:28:14.276Z,0.00
2019-05-25T00:29:14.273Z,0.00
2019-05-25T00:30:14.255Z,0.00
2019-05-25T00:31:14.334Z,0.00
2019-05-25T00:32:14.272Z,0.00
2019-05-25T00:33:14.228Z,0.00
2019-05-25T00:34:15.288Z,0.00
2019-05-25T00:35:14.204Z,0.00
2019-05-25T00:36:14.220Z,0.00
2019-05-25T00:37:14.206Z,0.00
2019-05-25T00:38:14.240Z,0.00
2019-05-25T00:39:14.251Z,0.00
2019-05-25T00:40:14.186Z,0.00
2019-05-25T00:41:14.188Z,0.00
2019-05-25T00:42:14.199Z,0.00
2019-05-25T00:43:14.145Z,0.00
2019-05-25T00:44:14.109Z,0.00
2019-05-25T00:45:14.097Z,0.00
2019-05-25T00:46:14.083Z,0.00
2019-05-25T00:47:14.117Z,0.00
2019-05-25T00:48:14.061Z,0.00
2019-05-25T00:49:14.081Z,0.00
2019-05-25T00:50:14.041Z,0.00
2019-05-25T00:51:14.034Z,0.00
2019-05-25T00:52:14.396Z,0.00
2019-05-25T00:53:14.009Z,0.00
2019-05-25T00:54:27.113Z,0.00
2019-05-25T00:55:15.090Z,0.00
2019-05-25T00:56:13.978Z,0.00
2019-05-25T00:57:14.003Z,0.00
2019-05-25T00:58:13.957Z,0.00
2019-05-25T00:59:13.942Z,0.00
2019-05-25T01:00:13.937Z,0.00
2019-05-25T01:01:13.946Z,0.00
2019-05-25T01:02:13.939Z,0.00
2019-05-25T01:03:13.919Z,0.00
2019-05-25T01:04:13.888Z,0.00
2019-05-25T01:05:13.881Z,0.00
2019-05-25T01:06:13.863Z,0.00
2019-05-25T01:07:13.915Z,0.00
2019-05-25T01:08:13.850Z,0.00
2019-05-25T01:09:13.831Z,0.00
2019-05-25T01:10:13.875Z,0.00
2019-05-25T01:11:13.821Z,0.00
2019-05-25T01:12:13.795Z,0.00
2019-05-25T01:13:13.882Z,0.00
2019-05-25T01:14:13.777Z,0.00
2019-05-25T01:15:13.772Z,0.00
2019-05-25T01:16:13.791Z,0.00
2019-05-25T01:17:13.748Z,0.00
2019-05-25T01:18:13.761Z,0.00
2019-05-25T01:19:13.728Z,0.00
2019-05-25T01:20:13.788Z,0.00
2019-05-25T01:21:13.706Z,0.00
2019-05-25T01:22:13.706Z,0.00
2019-05-25T01:23:13.735Z,0.00
2019-05-25T01:24:13.749Z,0.00
2019-05-25T01:25:13.730Z,0.00
2019-05-25T01:26:13.730Z,0.00
2019-05-25T01:27:13.660Z,0.00
2019-05-25T01:28:13.712Z,0.00
2019-05-25T01:29:13.635Z,0.00
2019-05-25T01:30:13.633Z,0.00
2019-05-25T01:31:13.607Z,0.00
2019-05-25T01:32:13.623Z,0.00
2019-05-25T01:33:13.600Z,0.00
2019-05-25T01:34:13.597Z,0.00
2019-05-25T01:35:13.555Z,0.00
2019-05-25T01:36:13.547Z,0.00
2019-05-25T01:37:13.539Z,0.00
2019-05-25T01:38:13.593Z,0.00
2019-05-25T01:39:13.540Z,0.00
2019-05-25T01:40:13.504Z,0.00
2019-05-25T01:41:13.494Z,0.00
2019-05-25T01:42:13.487Z,0.00
2019-05-25T01:43:13.497Z,0.00
2019-05-25T01:44:13.457Z,0.00
2019-05-25T01:45:13.448Z,0.00
2019-05-25T01:46:13.435Z,0.00
2019-05-25T01:47:13.441Z,0.00
2019-05-25T01:48:13.457Z,0.00
2019-05-25T01:49:13.409Z,0.00
2019-05-25T01:50:13.398Z,0.00
2019-05-25T01:51:13.386Z,0.00
2019-05-25T01:52:13.374Z,0.00
2019-05-25T01:53:13.398Z,0.00
2019-05-25T01:54:13.361Z,0.00
2019-05-25T01:55:13.357Z,0.00
2019-05-25T01:56:13.327Z,0.00
2019-05-25T01:57:13.341Z,0.00
2019-05-25T01:58:13.347Z,0.00
2019-05-25T01:59:13.297Z,0.00
2019-05-25T02:00:13.297Z,0.00
2019-05-25T02:01:13.299Z,0.00
2019-05-25T02:02:13.280Z,0.00
2019-05-25T02:03:13.283Z,0.00
2019-05-25T02:04:13.250Z,0.00
2019-05-25T02:05:13.234Z,0.00
2019-05-25T02:06:13.223Z,0.00
2019-05-25T02:07:13.215Z,0.00
2019-05-25T02:08:13.245Z,0.00
2019-05-25T02:09:13.199Z,0.00
2019-05-25T02:10:13.219Z,0.00
2019-05-25T02:11:13.182Z,0.00
2019-05-25T02:12:13.164Z,0.00
2019-05-25T02:13:13.189Z,0.00
2019-05-25T02:14:13.154Z,0.00
2019-05-25T02:15:13.136Z,0.00
2019-05-25T02:16:13.140Z,0.00
2019-05-25T02:17:13.107Z,0.00
2019-05-25T02:18:13.130Z,0.00
2019-05-25T02:19:13.123Z,0.00
2019-05-25T02:20:13.078Z,0.00
2019-05-25T02:21:13.075Z,4.00
2019-05-25T02:22:13.061Z,4.00
2019-05-25T02:23:13.085Z,4.00
2019-05-25T02:24:13.030Z,0.00
2019-05-25T02:25:18.332Z,0.00
2019-05-25T02:26:14.013Z,4.00
2019-05-25T02:27:12.999Z,4.00
2019-05-25T02:28:12.986Z,4.00
2019-05-25T02:29:13.010Z,4.00
2019-05-25T02:30:12.970Z,4.00
2019-05-25T02:31:12.954Z,8.00
2019-05-25T02:32:12.946Z,4.00
2019-05-25T02:33:12.952Z,8.00
2019-05-25T02:34:12.963Z,8.00
2019-05-25T02:35:12.914Z,8.00
2019-05-25T02:36:12.905Z,8.00
2019-05-25T02:37:12.889Z,12.00
2019-05-25T02:38:12.879Z,12.00
2019-05-25T02:39:12.902Z,12.00
2019-05-25T02:40:12.863Z,12.00
2019-05-25T02:41:12.853Z,16.00
2019-05-25T02:42:12.835Z,20.00
2019-05-25T02:43:12.829Z,20.00
2019-05-25T02:44:12.874Z,20.00
2019-05-25T02:45:12.812Z,24.00
2019-05-25T02:46:12.798Z,28.00
2019-05-25T02:47:12.787Z,32.00
2019-05-25T02:48:12.773Z,36.00
2019-05-25T02:49:12.800Z,40.00
2019-05-25T02:50:12.749Z,44.00
2019-05-25T02:51:12.740Z,48.00
2019-05-25T02:52:12.734Z,48.00
2019-05-25T02:53:12.724Z,56.00
2019-05-25T02:54:12.741Z,60.00
2019-05-25T02:55:12.700Z,64.00
2019-05-25T02:56:12.686Z,72.00
2019-05-25T02:57:12.675Z,76.00
2019-05-25T02:58:12.673Z,80.00
2019-05-25T02:59:12.693Z,80.00
2019-05-25T03:00:12.645Z,92.00
2019-05-25T03:01:12.640Z,96.00
2019-05-25T03:02:12.623Z,100.00
2019-05-25T03:03:12.625Z,108.00
2019-05-25T03:04:12.639Z,112.00
2019-05-25T03:05:12.601Z,120.00
2019-05-25T03:06:12.641Z,128.00
2019-05-25T03:07:12.573Z,132.00
2019-05-25T03:08:12.560Z,144.00
2019-05-25T03:09:12.581Z,152.00
2019-05-25T03:10:12.537Z,156.00
2019-05-25T03:11:12.529Z,164.00
2019-05-25T03:12:12.521Z,176.00
2019-05-25T03:13:12.509Z,184.00
2019-05-25T03:14:12.529Z,192.00
2019-05-25T03:15:12.483Z,200.00
2019-05-25T03:16:12.477Z,208.00
2019-05-25T03:17:12.468Z,216.00
2019-05-25T03:18:12.456Z,224.00
2019-05-25T03:19:12.486Z,236.00
2019-05-25T03:20:12.435Z,244.00
2019-05-25T03:21:12.421Z,252.00
2019-05-25T03:22:12.408Z,260.00
2019-05-25T03:23:12.403Z,272.00
2019-05-25T03:24:12.416Z,284.00
2019-05-25T03:25:12.386Z,296.00
2019-05-25T03:26:12.369Z,308.00
2019-05-25T03:27:12.361Z,324.00
2019-05-25T03:28:12.343Z,336.00
2019-05-25T03:29:12.368Z,356.00
2019-05-25T03:30:12.328Z,372.00
2019-05-25T03:31:12.315Z,388.00
2019-05-25T03:32:12.304Z,404.00
2019-05-25T03:33:12.292Z,420.00
2019-05-25T03:34:12.347Z,428.00
2019-05-25T03:35:12.273Z,440.00
2019-05-25T03:36:12.270Z,448.00
2019-05-25T03:37:12.258Z,452.00
2019-05-25T03:38:12.260Z,468.00
2019-05-25T03:39:12.260Z,472.00
2019-05-25T03:40:12.219Z,484.00
2019-05-25T03:41:12.206Z,496.00
2019-05-25T03:42:12.197Z,504.00
2019-05-25T03:43:12.190Z,516.00
2019-05-25T03:44:12.172Z,528.00
2019-05-25T03:45:12.194Z,532.00
2019-05-25T03:46:12.154Z,548.00
2019-05-25T03:47:12.142Z,564.00
2019-05-25T03:48:12.131Z,572.00
2019-05-25T03:49:12.121Z,580.00
2019-05-25T03:50:12.143Z,592.00
2019-05-25T03:51:12.115Z,612.00
2019-05-25T03:52:12.088Z,624.00
2019-05-25T03:53:12.115Z,652.00
2019-05-25T03:54:12.069Z,672.00
2019-05-25T03:55:12.055Z,700.00
2019-05-25T03:56:12.046Z,724.00
2019-05-25T03:57:12.030Z,756.00
2019-05-25T03:58:12.020Z,792.00
2019-05-25T03:59:12.041Z,840.00
2019-05-25T04:00:12.014Z,900.00
2019-05-25T04:01:12.043Z,976.00
2019-05-25T04:02:11.979Z,1068.00
2019-05-25T04:03:11.970Z,1164.00
2019-05-25T04:04:11.960Z,1248.00
2019-05-25T04:05:11.953Z,1332.00
2019-05-25T04:06:11.939Z,1396.00
2019-05-25T04:07:11.952Z,1448.00
2019-05-25T04:08:11.916Z,1476.00
2019-05-25T04:09:11.902Z,1484.00
2019-05-25T04:10:11.888Z,1492.00
2019-05-25T04:11:11.879Z,1512.00
2019-05-25T04:12:11.913Z,1544.00
2019-05-25T04:13:11.864Z,1592.00
2019-05-25T04:14:11.853Z,1628.00
2019-05-25T04:15:11.844Z,1676.00
2019-05-25T04:16:11.827Z,1724.00
2019-05-25T04:17:11.852Z,1780.00
2019-05-25T04:18:11.812Z,1840.00
2019-05-25T04:19:11.801Z,1880.00
2019-05-25T04:20:11.819Z,1904.00
2019-05-25T04:21:11.774Z,1904.00
2019-05-25T04:22:11.761Z,1896.00
2019-05-25T04:23:11.751Z,1884.00
2019-05-25T04:24:11.751Z,1856.00
2019-05-25T04:25:11.767Z,1840.00
2019-05-25T04:26:22.232Z,1808.00
2019-05-25T04:27:12.717Z,1784.00
2019-05-25T04:28:11.702Z,1768.00
2019-05-25T04:29:11.717Z,1744.00
2019-05-25T04:30:11.675Z,1720.00
2019-05-25T04:31:11.665Z,1692.00
2019-05-25T04:32:11.661Z,1692.00
2019-05-25T04:33:11.661Z,1692.00
2019-05-25T04:34:11.669Z,1688.00
2019-05-25T04:35:11.619Z,1688.00
2019-05-25T04:36:11.620Z,1688.00
2019-05-25T04:37:11.610Z,1688.00
2019-05-25T04:38:11.595Z,1696.00
2019-05-25T04:39:11.582Z,1692.00
2019-05-25T04:40:11.607Z,1704.00
2019-05-25T04:41:11.559Z,1728.00
2019-05-25T04:42:11.548Z,1736.00
2019-05-25T04:43:11.563Z,1748.00
2019-05-25T04:44:11.535Z,1752.00
2019-05-25T04:45:11.571Z,1756.00
2019-05-25T04:46:11.512Z,1756.00
2019-05-25T04:47:26.125Z,1756.00
2019-05-25T04:48:12.481Z,1772.00
2019-05-25T04:49:11.471Z,1760.00
2019-05-25T04:50:11.496Z,1748.00
2019-05-25T04:51:11.512Z,1716.00
2019-05-25T04:52:11.441Z,1692.00
2019-05-25T04:53:11.436Z,1644.00
2019-05-25T04:54:11.419Z,1596.00
2019-05-25T04:55:11.437Z,1568.00
2019-05-25T04:56:11.404Z,1544.00
2019-05-25T04:57:11.399Z,1508.00
2019-05-25T04:58:11.383Z,1456.00
2019-05-25T04:59:11.380Z,1424.00
2019-05-25T05:00:11.354Z,1428.00
2019-05-25T05:01:11.397Z,1444.00
2019-05-25T05:02:11.336Z,1448.00
2019-05-25T05:03:11.339Z,1448.00
2019-05-25T05:04:11.318Z,1460.00
2019-05-25T05:05:11.346Z,1472.00
2019-05-25T05:06:11.291Z,1484.00
2019-05-25T05:07:11.292Z,1512.00
2019-05-25T05:08:11.277Z,1552.00
2019-05-25T05:09:11.284Z,1600.00
2019-05-25T05:10:11.308Z,1652.00
2019-05-25T05:11:11.411Z,1696.00
2019-05-25T05:12:11.227Z,1720.00
2019-05-25T05:13:11.766Z,1744.00
2019-05-25T05:14:11.207Z,1752.00
2019-05-25T05:15:11.264Z,1756.00
2019-05-25T05:16:11.197Z,1708.00
2019-05-25T05:17:11.178Z,1664.00
2019-05-25T05:18:11.280Z,1608.00
2019-05-25T05:19:11.357Z,1604.00
2019-05-25T05:20:11.182Z,1652.00
2019-05-25T05:21:11.245Z,1620.00
2019-05-25T05:22:11.128Z,1536.00
2019-05-25T05:23:11.118Z,1652.00
2019-05-25T05:24:11.099Z,1748.00
2019-05-25T05:25:11.983Z,1776.00
2019-05-25T05:26:11.117Z,1792.00
2019-05-25T05:27:11.067Z,1876.00
2019-05-25T05:28:11.064Z,1912.00
2019-05-25T05:29:11.050Z,1908.00
2019-05-25T05:30:11.148Z,1888.00
2019-05-25T05:31:23.111Z,1864.00
2019-05-25T05:32:26.373Z,1900.00
2019-05-25T05:33:12.012Z,1984.00
2019-05-25T05:34:11.027Z,1992.00
2019-05-25T05:35:10.987Z,2008.00
2019-05-25T05:36:11.010Z,2048.00
2019-05-25T05:37:11.002Z,2052.00
2019-05-25T05:38:10.958Z,2072.00
2019-05-25T05:39:10.939Z,2072.00
2019-05-25T05:40:10.941Z,2088.00
2019-05-25T05:41:10.936Z,2068.00
2019-05-25T05:42:10.967Z,1956.00
2019-05-25T05:43:10.952Z,2020.00
2019-05-25T05:44:10.940Z,2020.00
2019-05-25T05:45:10.923Z,2144.00
2019-05-25T05:46:10.895Z,2188.00
2019-05-25T05:47:10.874Z,2148.00
2019-05-25T05:48:10.915Z,2268.00
2019-05-25T05:49:10.890Z,2396.00
2019-05-25T05:50:10.860Z,2788.00
2019-05-25T05:51:10.821Z,2628.00
2019-05-25T05:52:10.799Z,2812.00
2019-05-25T05:53:10.789Z,3768.00
2019-05-25T05:54:10.817Z,2820.00
2019-05-25T05:55:10.813Z,2596.00
2019-05-25T05:56:10.757Z,4152.00
2019-05-25T05:57:12.706Z,3940.00
2019-05-25T05:58:10.736Z,4424.00
2019-05-25T05:59:10.761Z,3344.00
2019-05-25T06:00:10.726Z,3504.00
2019-05-25T06:01:10.718Z,4780.00
2019-05-25T06:02:10.704Z,4856.00
2019-05-25T06:03:10.690Z,3260.00
2019-05-25T06:04:10.674Z,2880.00
2019-05-25T06:05:10.699Z,2880.00
2019-05-25T06:06:10.653Z,3208.00
2019-05-25T06:07:10.654Z,3276.00
2019-05-25T06:08:10.645Z,3992.00
2019-05-25T06:09:10.693Z,3324.00
2019-05-25T06:10:10.678Z,3200.00
2019-05-25T06:11:10.660Z,4592.00
2019-05-25T06:12:10.634Z,3996.00
2019-05-25T06:13:10.612Z,3812.00
2019-05-25T06:14:10.600Z,3272.00
2019-05-25T06:15:10.748Z,3660.00
2019-05-25T06:16:10.564Z,3696.00
2019-05-25T06:17:10.541Z,3500.00
2019-05-25T06:18:10.524Z,3616.00
2019-05-25T06:19:10.513Z,3896.00
2019-05-25T06:20:10.538Z,3716.00
2019-05-25T06:21:10.536Z,4476.00
2019-05-25T06:22:10.490Z,4484.00
2019-05-25T06:23:12.567Z,5068.00
2019-05-25T06:24:10.463Z,4780.00
2019-05-25T06:25:10.489Z,3656.00
2019-05-25T06:26:10.540Z,4412.00
2019-05-25T06:27:10.458Z,5524.00
2019-05-25T06:28:10.534Z,5220.00
2019-05-25T06:29:10.513Z,4724.00
2019-05-25T06:30:10.592Z,3444.00
2019-05-25T06:31:10.610Z,3780.00
2019-05-25T06:32:10.386Z,5272.00
2019-05-25T06:33:10.482Z,3192.00
2019-05-25T06:34:10.509Z,3016.00
2019-05-25T06:35:10.358Z,2744.00
2019-05-25T06:36:10.366Z,3040.00
2019-05-25T06:37:10.497Z,2936.00
2019-05-25T06:38:10.451Z,2444.00
2019-05-25T06:39:10.315Z,5284.00
2019-05-25T06:40:10.407Z,5356.00
2019-05-25T06:41:10.453Z,5616.00
2019-05-25T06:42:10.270Z,5672.00
2019-05-25T06:43:10.264Z,6708.00
2019-05-25T06:44:10.250Z,10260.00
2019-05-25T06:45:10.327Z,9744.00
2019-05-25T06:46:10.342Z,9624.00
2019-05-25T06:47:10.219Z,9520.00
2019-05-25T06:48:10.295Z,8784.00
2019-05-25T06:49:10.304Z,7400.00
2019-05-25T06:50:10.237Z,6900.00
2019-05-25T06:51:10.287Z,7728.00
2019-05-25T06:52:10.416Z,10520.00
2019-05-25T06:53:10.184Z,9016.00
2019-05-25T06:54:10.191Z,8156.00
2019-05-25T06:55:10.182Z,9720.00
2019-05-25T06:56:10.270Z,13496.00
2019-05-25T06:57:10.140Z,8948.00
2019-05-25T06:58:10.104Z,10328.00
2019-05-25T06:59:10.090Z,16736.00
2019-05-25T07:00:10.253Z,9632.00
2019-05-25T07:01:10.063Z,6956.00
2019-05-25T07:02:10.138Z,8680.00
2019-05-25T07:03:10.060Z,10148.00
2019-05-25T07:04:10.130Z,9064.00
2019-05-25T07:05:10.131Z,7516.00
2019-05-25T07:06:10.171Z,10264.00
2019-05-25T07:07:10.137Z,9296.00
2019-05-25T07:08:10.144Z,9412.00
2019-05-25T07:09:10.011Z,10224.00
2019-05-25T07:10:10.012Z,11176.00
2019-05-25T07:11:09.963Z,12132.00
2019-05-25T07:12:10.084Z,7152.00
2019-05-25T07:13:09.945Z,8156.00
2019-05-25T07:14:09.957Z,6776.00
2019-05-25T07:15:09.922Z,5292.00
2019-05-25T07:16:09.912Z,8328.00
2019-05-25T07:17:09.978Z,14184.00
2019-05-25T07:18:09.953Z,13580.00
2019-05-25T07:19:10.004Z,15256.00
2019-05-25T07:20:10.017Z,6640.00
2019-05-25T07:21:10.004Z,7508.00
2019-05-25T07:22:10.095Z,7600.00
2019-05-25T07:23:09.943Z,7116.00
2019-05-25T07:24:09.984Z,4200.00
2019-05-25T07:25:10.021Z,4720.00
2019-05-25T07:26:09.931Z,4460.00
2019-05-25T07:27:09.947Z,4660.00
2019-05-25T07:28:09.897Z,5436.00
2019-05-25T07:29:09.901Z,8716.00
2019-05-25T07:30:09.975Z,9928.00
2019-05-25T07:31:09.850Z,11212.00
2019-05-25T07:32:09.819Z,9440.00
2019-05-25T07:33:09.737Z,7576.00
2019-05-25T07:34:09.812Z,6580.00
2019-05-25T07:35:09.776Z,6744.00
2019-05-25T07:36:09.778Z,8108.00
2019-05-25T07:37:09.711Z,5184.00
2019-05-25T07:38:09.672Z,4388.00
2019-05-25T07:39:09.893Z,3924.00
2019-05-25T07:40:09.712Z,5772.00
2019-05-25T07:41:09.748Z,8652.00
2019-05-25T07:42:09.814Z,8836.00
2019-05-25T07:43:10.062Z,8180.00
2019-05-25T07:44:09.799Z,9700.00
2019-05-25T07:45:09.757Z,9380.00
2019-05-25T07:46:09.947Z,6644.00
2019-05-25T07:47:09.815Z,4688.00
2019-05-25T07:48:09.696Z,6620.00
2019-05-25T07:49:09.698Z,7716.00
2019-05-25T07:50:09.777Z,9068.00
2019-05-25T07:51:10.007Z,4904.00
2019-05-25T07:52:09.716Z,3808.00
2019-05-25T07:53:09.581Z,4644.00
2019-05-25T07:54:09.622Z,8756.00
2019-05-25T07:55:09.491Z,15064.00
2019-05-25T07:56:10.525Z,5652.00
2019-05-25T07:57:09.605Z,5560.00
2019-05-25T07:58:17.467Z,5820.00
2019-05-25T07:59:10.625Z,4564.00
2019-05-25T08:00:09.530Z,3928.00
2019-05-25T08:01:09.603Z,3696.00
2019-05-25T08:02:09.981Z,3352.00
2019-05-25T08:03:09.486Z,4176.00
2019-05-25T08:04:09.409Z,4092.00
2019-05-25T08:05:09.465Z,3772.00
2019-05-25T08:06:09.522Z,4472.00
2019-05-25T08:07:09.776Z,4424.00
2019-05-25T08:08:09.580Z,4224.00
2019-05-25T08:09:09.496Z,5140.00
2019-05-25T08:10:09.376Z,4772.00
2019-05-25T08:11:09.590Z,4552.00
2019-05-25T08:12:09.655Z,4184.00
2019-05-25T08:13:09.375Z,3636.00
2019-05-25T08:14:09.283Z,3444.00
2019-05-25T08:15:09.487Z,3740.00
2019-05-25T08:16:09.317Z,3972.00
2019-05-25T08:17:09.390Z,3720.00
2019-05-25T08:18:09.571Z,3740.00
2019-05-25T08:19:09.473Z,5632.00
2019-05-25T08:20:09.322Z,5284.00
2019-05-25T08:21:09.588Z,5740.00
2019-05-25T08:22:09.306Z,7308.00
2019-05-25T08:23:09.628Z,8540.00
2019-05-25T08:24:09.275Z,8328.00
2019-05-25T08:25:09.340Z,6736.00
2019-05-25T08:26:09.314Z,6860.00
2019-05-25T08:27:09.150Z,7172.00
2019-05-25T08:28:09.359Z,6752.00
2019-05-25T08:29:09.565Z,5940.00
2019-05-25T08:30:09.158Z,5192.00
2019-05-25T08:31:09.464Z,4416.00
2019-05-25T08:32:09.280Z,4064.00
2019-05-25T08:33:09.256Z,4088.00
2019-05-25T08:34:09.434Z,3760.00
2019-05-25T08:35:09.298Z,3484.00
2019-05-25T08:36:09.181Z,4208.00
2019-05-25T08:37:09.136Z,4904.00
2019-05-25T08:38:09.857Z,4280.00
2019-05-25T08:39:09.293Z,3908.00
2019-05-25T08:40:09.072Z,3628.00
2019-05-25T08:41:09.002Z,3204.00
2019-05-25T08:42:09.194Z,3296.00
2019-05-25T08:43:09.096Z,3596.00
2019-05-25T08:44:08.999Z,3520.00
2019-05-25T08:45:08.952Z,3716.00
2019-05-25T08:46:08.940Z,3912.00
2019-05-25T08:47:08.955Z,3500.00
2019-05-25T08:48:08.924Z,3152.00
2019-05-25T08:49:08.911Z,3156.00
2019-05-25T08:50:08.934Z,3716.00
2019-05-25T08:51:08.889Z,4416.00
2019-05-25T08:52:08.880Z,4532.00
2019-05-25T08:53:08.877Z,4632.00
2019-05-25T08:54:08.856Z,4660.00
2019-05-25T08:55:08.866Z,4036.00
2019-05-25T08:56:08.855Z,4096.00
2019-05-25T08:57:08.818Z,4824.00
2019-05-25T08:58:08.819Z,4748.00
2019-05-25T08:59:08.803Z,4880.00
2019-05-25T09:00:08.826Z,6016.00
2019-05-25T09:01:08.786Z,6416.00
2019-05-25T09:02:08.768Z,6404.00
2019-05-25T09:03:08.761Z,6228.00
2019-05-25T09:04:08.752Z,6320.00
2019-05-25T09:05:09.095Z,6640.00
2019-05-25T09:06:08.866Z,6864.00
2019-05-25T09:07:08.826Z,6992.00
2019-05-25T09:08:08.784Z,8296.00
2019-05-25T09:09:08.768Z,9060.00
2019-05-25T09:10:08.684Z,13984.00
2019-05-25T09:11:08.710Z,13848.00
2019-05-25T09:12:08.705Z,10880.00
2019-05-25T09:13:08.649Z,11616.00
2019-05-25T09:14:08.639Z,9692.00
2019-05-25T09:15:08.643Z,7620.00
2019-05-25T09:16:08.680Z,6736.00
2019-05-25T09:17:08.614Z,5968.00
2019-05-25T09:18:08.623Z,5620.00
2019-05-25T09:19:08.582Z,6012.00
2019-05-25T09:20:08.576Z,7932.00
2019-05-25T09:21:08.611Z,8608.00
2019-05-25T09:22:08.554Z,7524.00
2019-05-25T09:23:08.560Z,8176.00
2019-05-25T09:24:08.558Z,12240.00
2019-05-25T09:25:08.531Z,8480.00
2019-05-25T09:26:08.521Z,7428.00
2019-05-25T09:27:08.547Z,6252.00
2019-05-25T09:28:08.492Z,8100.00
2019-05-25T09:29:08.493Z,8388.00
2019-05-25T09:30:08.465Z,7388.00
2019-05-25T09:31:08.463Z,7544.00
2019-05-25T09:32:08.483Z,8644.00
2019-05-25T09:33:08.440Z,8748.00
2019-05-25T09:34:08.438Z,8092.00
2019-05-25T09:35:08.431Z,9464.00
2019-05-25T09:36:08.400Z,9132.00
2019-05-25T09:37:08.423Z,9532.00
2019-05-25T09:38:08.382Z,10760.00
2019-05-25T09:39:08.379Z,14476.00
2019-05-25T09:40:08.375Z,20512.00
2019-05-25T09:41:08.345Z,14204.00
2019-05-25T09:42:08.363Z,11304.00
2019-05-25T09:43:08.360Z,9108.00
2019-05-25T09:44:08.318Z,7884.00
2019-05-25T09:45:08.315Z,10772.00
2019-05-25T09:46:08.300Z,9316.00
2019-05-25T09:47:08.301Z,8148.00
2019-05-25T09:48:08.296Z,8612.00
2019-05-25T09:49:08.263Z,7164.00
2019-05-25T09:50:08.250Z,5496.00
2019-05-25T09:51:15.544Z,4908.00
2019-05-25T09:52:09.231Z,4992.00
2019-05-25T09:53:08.266Z,4568.00
2019-05-25T09:54:08.211Z,4132.00
2019-05-25T09:55:08.197Z,4032.00
2019-05-25T09:56:08.193Z,4604.00
2019-05-25T09:57:08.177Z,3996.00
2019-05-25T09:58:08.170Z,4020.00
2019-05-25T09:59:19.735Z,4324.00
2019-05-25T10:00:09.153Z,4656.00
2019-05-25T10:01:08.132Z,5692.00
2019-05-25T10:02:08.172Z,8424.00
2019-05-25T10:03:08.143Z,11756.00
2019-05-25T10:04:08.324Z,11204.00
2019-05-25T10:05:08.096Z,8704.00
2019-05-25T10:06:11.761Z,8096.00
2019-05-25T10:07:09.077Z,10040.00
2019-05-25T10:08:08.077Z,10880.00
2019-05-25T10:09:08.836Z,10236.00
2019-05-25T10:10:08.115Z,7708.00
2019-05-25T10:11:08.035Z,7228.00
2019-05-25T10:12:08.054Z,8372.00
2019-05-25T10:13:08.003Z,8512.00
2019-05-25T10:14:08.003Z,6820.00
2019-05-25T10:15:08.016Z,5592.00
2019-05-25T10:16:07.996Z,5552.00
2019-05-25T10:17:07.972Z,7208.00
2019-05-25T10:18:07.966Z,10192.00
2019-05-25T10:19:07.984Z,11368.00
2019-05-25T10:20:07.965Z,16648.00
2019-05-25T10:21:07.921Z,13216.00
2019-05-25T10:22:07.910Z,11744.00
2019-05-25T10:23:07.896Z,17888.00
2019-05-25T10:24:07.929Z,12504.00
2019-05-25T10:25:07.919Z,11124.00
2019-05-25T10:26:07.866Z,9840.00
2019-05-25T10:27:07.863Z,26752.00
2019-05-25T10:28:07.850Z,11304.00
2019-05-25T10:29:07.836Z,17280.00
2019-05-25T10:30:07.827Z,14748.00
2019-05-25T10:31:07.852Z,14260.00
2019-05-25T10:32:07.804Z,16928.00
2019-05-25T10:33:07.794Z,12728.00
2019-05-25T10:34:07.778Z,12016.00
2019-05-25T10:35:07.772Z,9632.00
2019-05-25T10:36:07.788Z,9068.00
2019-05-25T10:37:07.756Z,7344.00
2019-05-25T10:38:07.765Z,6312.00
2019-05-25T10:39:07.728Z,7592.00
2019-05-25T10:40:07.717Z,8136.00
2019-05-25T10:41:07.742Z,8412.00
2019-05-25T10:42:07.698Z,8752.00
2019-05-25T10:43:07.689Z,9256.00
2019-05-25T10:44:07.673Z,8376.00
2019-05-25T10:45:07.665Z,7616.00
2019-05-25T10:46:07.648Z,7464.00
2019-05-25T10:47:07.674Z,6696.00
2019-05-25T10:48:07.686Z,8424.00
2019-05-25T10:49:07.715Z,7640.00
2019-05-25T10:50:07.610Z,7108.00
2019-05-25T10:51:07.658Z,9712.00
2019-05-25T10:52:07.586Z,10028.00
2019-05-25T10:53:07.607Z,9572.00
2019-05-25T10:54:07.561Z,9340.00
2019-05-25T10:55:07.552Z,10140.00
2019-05-25T10:56:07.548Z,9964.00
2019-05-25T10:57:07.537Z,11500.00
2019-05-25T10:58:07.558Z,12192.00
2019-05-25T10:59:07.509Z,12124.00
2019-05-25T11:00:07.507Z,10992.00
2019-05-25T11:01:07.494Z,14476.00
2019-05-25T11:02:07.502Z,14988.00
2019-05-25T11:03:07.528Z,13060.00
2019-05-25T11:04:07.460Z,10780.00
2019-05-25T11:05:07.454Z,9208.00
2019-05-25T11:06:07.499Z,11932.00
2019-05-25T11:07:07.440Z,13340.00
2019-05-25T11:08:07.464Z,12780.00
2019-05-25T11:09:07.409Z,11012.00
2019-05-25T11:10:07.427Z,11700.00
2019-05-25T11:11:07.395Z,10824.00
2019-05-25T11:12:07.374Z,8344.00
2019-05-25T11:13:07.485Z,8480.00
2019-05-25T11:14:07.358Z,8148.00
2019-05-25T11:15:07.401Z,7788.00
2019-05-25T11:16:07.398Z,8884.00
2019-05-25T11:17:07.324Z,7200.00
2019-05-25T11:18:07.348Z,6344.00
2019-05-25T11:19:07.328Z,6504.00
2019-05-25T11:20:07.294Z,7960.00
2019-05-25T11:21:07.284Z,8796.00
2019-05-25T11:22:07.972Z,12064.00
2019-05-25T11:23:07.261Z,14020.00
2019-05-25T11:24:07.286Z,15320.00
2019-05-25T11:25:07.232Z,16072.00
2019-05-25T11:26:07.222Z,16096.00
2019-05-25T11:27:07.211Z,15600.00
2019-05-25T11:28:08.429Z,13016.00
2019-05-25T11:29:07.220Z,12252.00
2019-05-25T11:30:09.324Z,10500.00
2019-05-25T11:31:07.171Z,12168.00
2019-05-25T11:32:07.711Z,10840.00
2019-05-25T11:33:07.150Z,11440.00
2019-05-25T11:34:07.177Z,10588.00
2019-05-25T11:35:07.135Z,11324.00
2019-05-25T11:36:07.115Z,10792.00
2019-05-25T11:37:07.102Z,10476.00
2019-05-25T11:38:07.091Z,9172.00
2019-05-25T11:39:07.114Z,9068.00
2019-05-25T11:40:07.075Z,8412.00
2019-05-25T11:41:07.066Z,8540.00
2019-05-25T11:42:07.057Z,7960.00
2019-05-25T11:43:07.045Z,7976.00
2019-05-25T11:44:07.027Z,7748.00
2019-05-25T11:45:07.053Z,7988.00
2019-05-25T11:46:07.012Z,9600.00
2019-05-25T11:47:07.204Z,8764.00
2019-05-25T11:48:06.986Z,10516.00
2019-05-25T11:49:21.723Z,9280.00
2019-05-25T11:50:07.991Z,10196.00
2019-05-25T11:51:06.964Z,10188.00
2019-05-25T11:52:06.951Z,7992.00
2019-05-25T11:53:06.975Z,6672.00
2019-05-25T11:54:06.925Z,6108.00
2019-05-25T11:55:06.922Z,5952.00
2019-05-25T11:56:06.913Z,5812.00
2019-05-25T11:57:06.926Z,6992.00
2019-05-25T11:58:06.916Z,8252.00
2019-05-25T11:59:06.868Z,9460.00
2019-05-25T12:00:06.873Z,10000.00
2019-05-25T12:01:06.854Z,11292.00
2019-05-25T12:02:06.872Z,11436.00
2019-05-25T12:03:06.872Z,11748.00
2019-05-25T12:04:06.824Z,11752.00
2019-05-25T12:05:06.813Z,10076.00
2019-05-25T12:06:06.800Z,8764.00
2019-05-25T12:07:06.790Z,7632.00
2019-05-25T12:08:06.821Z,6536.00
2019-05-25T12:09:06.761Z,6000.00
2019-05-25T12:10:06.757Z,5988.00
2019-05-25T12:11:06.743Z,6228.00
2019-05-25T12:12:06.740Z,5884.00
2019-05-25T12:13:06.761Z,5100.00
2019-05-25T12:14:06.718Z,4848.00
2019-05-25T12:15:06.706Z,4540.00
2019-05-25T12:16:06.690Z,4352.00
2019-05-25T12:17:06.678Z,5044.00
2019-05-25T12:18:06.719Z,5200.00
2019-05-25T12:19:06.663Z,5324.00
2019-05-25T12:20:06.648Z,6248.00